KSUX/SUX METAR and TAF weather

Enter ICAO airport designator
Station Type Date Time Source
KSUX METAR 2019/06/16 20:52 UTC NOAA

KSUX 162052Z 34008KT 10SM SCT070 29/14 A2986 RMK AO2 SLP105 T02940144 58008


Station Type Date Time Source
KSUX Decoded METAR 2019/06/16 20:52 UTC NOAA

SIOUX GATEWAY AIRPORT, IA, United States (KSUX) 42-23N 96-23W 338M
Jun 16, 2019 - 04:52 PM EDT / 2019.06.16 2052 UTC
Wind: from the NNW (340 degrees) at 9 MPH (8 KT):0
Visibility: 10 mile(s):0
Sky conditions: partly cloudy
Temperature: 84.9 F (29.4 C)
Dew Point: 57.9 F (14.4 C)
Relative Humidity: 39%
Pressure (altimeter): 29.86 in. Hg (1011 hPa)
Pressure tendency: 0.02 inches (0.8 hPa) lower than three hours ago
ob: KSUX 162052Z 34008KT 10SM SCT070 29/14 A2986 RMK AO2 SLP105 T02940144 58008
cycle: 21

Station Type Date Time Source
KSUX TAF 2019/06/16 18:42 UTC NOAA

TAF KSUX 161738Z 1618/1718 33006KT P6SM FEW040 SCT250
FM162100 34007KT P6SM FEW050
FM170000 01005KT P6SM FEW120
FM170800 VRB04KT P6SM BKN090
TEMPO 1714/1718 -SHRA OVC060

Example: see airport list